Time;durP1;ratioP1;P1;durP2;ratioP2;P2;SDS_P1;SDS_P2;PMS_P1;PMS_P2;Temp;Humidity;BMP_temperature;BMP_pressure;BME280_temperature;BME280_humidity;BME280_pressure;Samples;Min_cycle;Max_cycle;Signal;HPM_P1;HPM_P2
2023/08/30 00:00:53;;;;;;;5.27;2.73;;;;;;;;;;5112357;28;20717;-42
2023/08/30 00:03:20;;;;;;;6.67;5.30;;;;;;;;;;5102865;28;20657;-45
2023/08/30 00:05:47;;;;;;;3.73;3.03;;;;;;;;;;5107037;28;20203;-44
2023/08/30 00:08:18;;;;;;;4.20;3.90;;;;;;;;;;5098359;28;20233;-42
2023/08/30 00:10:45;;;;;;;5.57;4.97;;;;;;;;;;5099172;28;20208;-44
2023/08/30 00:13:13;;;;;;;5.60;5.20;;;;;;;;;;5105650;28;20246;-41
2023/08/30 00:15:45;;;;;;;5.60;5.10;;;;;;;;;;5105134;28;20224;-39
2023/08/30 00:18:12;;;;;;;5.70;5.20;;;;;;;;;;5106093;28;20220;-47
2023/08/30 00:20:39;;;;;;;5.43;4.90;;;;;;;;;;5114275;28;20237;-45
2023/08/30 00:23:06;;;;;;;7.37;6.67;;;;;;;;;;5109991;28;20227;-40
2023/08/30 00:25:33;;;;;;;6.40;5.90;;;;;;;;;;5097758;28;20192;-41
2023/08/30 00:28:00;;;;;;;9.03;5.33;;;;;;;;;;5109867;28;20196;-42
2023/08/30 00:30:28;;;;;;;6.53;4.93;;;;;;;;;;5101305;28;20215;-44
2023/08/30 00:32:56;;;;;;;5.47;5.03;;;;;;;;;;5110985;28;20219;-44
2023/08/30 00:35:23;;;;;;;4.83;4.43;;;;;;;;;;5093458;28;20211;-45
2023/08/30 00:37:50;;;;;;;6.60;4.40;;;;;;;;;;5355411;22;20236;-33
2023/08/30 00:40:17;;;;;;;4.40;3.93;;;;;;;;;;5108400;28;20204;-30
2023/08/30 00:42:44;;;;;;;4.33;3.97;;;;;;;;;;5105617;28;20275;-31
2023/08/30 00:45:12;;;;;;;4.67;4.27;;;;;;;;;;5102201;28;20203;-31
2023/08/30 00:47:39;;;;;;;4.43;4.03;;;;;;;;;;5107547;28;20321;-27
2023/08/30 00:50:09;;;;;;;4.87;4.47;;;;;;;;;;5105907;28;20192;-29
2023/08/30 00:52:36;;;;;;;4.30;4.00;;;;;;;;;;5110390;28;20274;-32
2023/08/30 00:55:03;;;;;;;4.10;3.80;;;;;;;;;;5100766;28;20192;-31
2023/08/30 00:57:30;;;;;;;5.70;5.10;;;;;;;;;;5100135;28;20204;-30
2023/08/30 00:59:58;;;;;;;3.03;2.73;;;;;;;;;;5091261;28;20325;-33
2023/08/30 01:02:25;;;;;;;2.90;2.67;;;;;;;;;;5100796;28;20226;-31
2023/08/30 01:04:52;;;;;;;5.80;5.07;;;;;;;;;;5096408;28;20200;-32
2023/08/30 01:07:21;;;;;;;5.00;4.60;;;;;;;;;;5101432;28;20227;-31
2023/08/30 01:09:48;;;;;;;6.00;4.23;;;;;;;;;;5101760;28;20200;-31
2023/08/30 01:12:19;;;;;;;7.33;5.00;;;;;;;;;;5111134;28;20251;-33
2023/08/30 01:14:49;;;;;;;5.57;4.77;;;;;;;;;;5108904;28;20193;-31
2023/08/30 01:17:18;;;;;;;4.00;3.70;;;;;;;;;;5103970;28;20196;-28
2023/08/30 01:19:49;;;;;;;3.40;3.20;;;;;;;;;;5090989;28;20248;-30
2023/08/30 01:22:18;;;;;;;3.27;3.07;;;;;;;;;;5105871;28;20224;-31
2023/08/30 01:24:51;;;;;;;3.50;3.23;;;;;;;;;;5100791;28;20204;-30
2023/08/30 01:27:19;;;;;;;3.57;3.10;;;;;;;;;;5092813;28;20212;-30
2023/08/30 01:29:47;;;;;;;3.07;2.87;;;;;;;;;;5092917;28;20300;-33
2023/08/30 01:32:17;;;;;;;5.13;4.23;;;;;;;;;;5093766;28;20224;-31
2023/08/30 01:34:46;;;;;;;4.43;3.63;;;;;;;;;;5108664;28;20283;-32
2023/08/30 01:37:14;;;;;;;4.73;4.07;;;;;;;;;;5096047;28;20192;-32
2023/08/30 01:39:43;;;;;;;6.60;3.37;;;;;;;;;;5097937;28;20220;-30
2023/08/30 01:42:11;;;;;;;4.00;3.70;;;;;;;;;;5111859;28;20220;-31
2023/08/30 01:44:41;;;;;;;3.77;3.47;;;;;;;;;;5111680;28;20275;-29
2023/08/30 01:47:08;;;;;;;3.13;2.90;;;;;;;;;;5092682;28;20208;-28
2023/08/30 01:49:37;;;;;;;4.10;3.70;;;;;;;;;;5099224;28;20203;-30
2023/08/30 01:52:04;;;;;;;5.03;4.53;;;;;;;;;;5102602;28;20246;-31
2023/08/30 01:54:32;;;;;;;5.00;3.77;;;;;;;;;;5093825;28;20203;-30
2023/08/30 01:57:00;;;;;;;10.33;4.80;;;;;;;;;;5094860;28;20204;-30
2023/08/30 01:59:27;;;;;;;4.20;3.80;;;;;;;;;;5090481;28;20224;-32
2023/08/30 02:01:56;;;;;;;6.20;3.57;;;;;;;;;;5096329;28;20220;-28
2023/08/30 02:04:23;;;;;;;6.73;4.80;;;;;;;;;;5099571;28;20207;-27
2023/08/30 02:06:56;;;;;;;3.93;3.63;;;;;;;;;;5090817;28;20204;-31
2023/08/30 02:09:26;;;;;;;8.20;4.93;;;;;;;;;;5102610;28;20192;-30
2023/08/30 02:11:54;;;;;;;3.90;3.50;;;;;;;;;;5098854;28;20223;-29
2023/08/30 02:14:21;;;;;;;5.37;4.67;;;;;;;;;;5089619;28;20215;-27
2023/08/30 02:16:49;;;;;;;4.93;4.53;;;;;;;;;;5096835;28;20314;-32
2023/08/30 02:19:20;;;;;;;4.23;3.93;;;;;;;;;;5102367;28;20226;-31
2023/08/30 02:21:48;;;;;;;4.00;3.70;;;;;;;;;;5093052;28;20224;-30
2023/08/30 02:24:15;;;;;;;4.87;4.47;;;;;;;;;;5106137;28;20197;-30
2023/08/30 02:26:42;;;;;;;4.77;4.37;;;;;;;;;;5097317;28;20201;-32
2023/08/30 02:29:09;;;;;;;7.77;5.07;;;;;;;;;;5090340;28;20211;-32
2023/08/30 02:31:36;;;;;;;4.70;4.30;;;;;;;;;;5103167;28;20223;-32
2023/08/30 02:34:04;;;;;;;5.90;5.40;;;;;;;;;;5105538;28;20207;-28
2023/08/30 02:36:32;;;;;;;4.43;4.03;;;;;;;;;;5094604;28;20205;-32
2023/08/30 02:38:59;;;;;;;6.43;4.77;;;;;;;;;;5099832;28;20231;-32
2023/08/30 02:41:26;;;;;;;3.40;3.10;;;;;;;;;;5105517;28;20220;-30
2023/08/30 02:43:53;;;;;;;4.67;4.30;;;;;;;;;;5114863;28;20210;-32
2023/08/30 02:46:20;;;;;;;7.17;4.90;;;;;;;;;;5111870;28;20243;-32
2023/08/30 02:48:47;;;;;;;5.33;4.77;;;;;;;;;;5095179;28;20219;-32
2023/08/30 02:51:15;;;;;;;4.57;4.20;;;;;;;;;;5110565;28;20223;-31
2023/08/30 02:53:43;;;;;;;4.50;4.17;;;;;;;;;;5102395;28;20203;-30
2023/08/30 02:56:11;;;;;;;7.87;5.27;;;;;;;;;;5102271;28;20204;-32
2023/08/30 02:58:38;;;;;;;6.33;3.50;;;;;;;;;;5114589;28;20207;-31
2023/08/30 03:01:05;;;;;;;4.53;4.17;;;;;;;;;;5110278;28;20223;-28
2023/08/30 03:03:32;;;;;;;7.57;4.77;;;;;;;;;;5102933;28;20291;-30
2023/08/30 03:05:59;;;;;;;4.57;4.17;;;;;;;;;;5109533;28;20210;-29
2023/08/30 03:08:26;;;;;;;4.37;4.07;;;;;;;;;;5099325;28;20378;-31
2023/08/30 03:10:55;;;;;;;10.23;5.17;;;;;;;;;;5105571;28;20224;-29
2023/08/30 03:13:22;;;;;;;4.97;3.80;;;;;;;;;;5115771;28;20673;-28
2023/08/30 03:15:49;;;;;;;4.30;3.73;;;;;;;;;;5115925;28;20210;-31
2023/08/30 03:18:16;;;;;;;3.20;2.50;;;;;;;;;;5110005;28;20207;-29
2023/08/30 03:20:43;;;;;;;5.03;4.57;;;;;;;;;;5101632;28;20251;-28
2023/08/30 03:23:10;;;;;;;5.20;4.70;;;;;;;;;;5099495;28;20231;-31
2023/08/30 03:25:37;;;;;;;5.67;5.17;;;;;;;;;;5099251;28;20230;-28
2023/08/30 03:28:07;;;;;;;4.20;3.90;;;;;;;;;;5109658;28;20279;-30
2023/08/30 03:30:34;;;;;;;5.53;5.03;;;;;;;;;;5092912;28;20283;-32
2023/08/30 03:33:01;;;;;;;4.90;4.50;;;;;;;;;;5097234;28;20226;-30
2023/08/30 03:35:28;;;;;;;3.20;3.00;;;;;;;;;;5092187;28;20212;-30
2023/08/30 03:37:55;;;;;;;3.17;2.97;;;;;;;;;;5095253;28;20216;-30
2023/08/30 03:40:22;;;;;;;4.83;4.43;;;;;;;;;;5106561;28;20224;-34
2023/08/30 03:42:49;;;;;;;3.80;3.50;;;;;;;;;;5092781;28;20247;-31
2023/08/30 03:45:18;;;;;;;5.30;4.80;;;;;;;;;;5093242;28;20209;-33
2023/08/30 03:47:45;;;;;;;3.50;3.20;;;;;;;;;;5091217;28;20205;-32
2023/08/30 03:50:12;;;;;;;4.43;4.13;;;;;;;;;;5101784;28;20232;-30
2023/08/30 03:52:39;;;;;;;5.07;4.67;;;;;;;;;;5097244;28;20231;-30
2023/08/30 03:55:07;;;;;;;3.80;3.50;;;;;;;;;;5100201;28;20239;-31
2023/08/30 03:57:34;;;;;;;6.43;5.30;;;;;;;;;;5092253;28;20232;-32
2023/08/30 04:00:02;;;;;;;5.20;4.70;;;;;;;;;;5093210;28;20225;-29
2023/08/30 04:02:30;;;;;;;8.20;5.13;;;;;;;;;;5099686;28;20255;-31
2023/08/30 04:04:57;;;;;;;4.57;3.30;;;;;;;;;;5099161;28;20204;-29
2023/08/30 04:07:24;;;;;;;5.47;4.97;;;;;;;;;;5107934;28;20203;-32
2023/08/30 04:09:52;;;;;;;6.37;4.83;;;;;;;;;;5103094;28;20199;-31
2023/08/30 04:12:19;;;;;;;5.50;4.80;;;;;;;;;;5093664;28;20226;-31
2023/08/30 04:14:46;;;;;;;5.33;4.20;;;;;;;;;;5092279;28;20201;-29
2023/08/30 04:17:13;;;;;;;3.97;3.63;;;;;;;;;;5085584;28;20503;-29
2023/08/30 04:19:41;;;;;;;5.80;4.97;;;;;;;;;;5103087;28;20222;-31
2023/08/30 04:22:08;;;;;;;6.00;4.77;;;;;;;;;;5101811;28;20232;-32
2023/08/30 04:24:36;;;;;;;5.07;4.67;;;;;;;;;;5102454;28;20212;-33
2023/08/30 04:27:03;;;;;;;4.47;4.17;;;;;;;;;;5097727;28;20214;-29
2023/08/30 04:29:30;;;;;;;4.20;3.90;;;;;;;;;;5104837;28;20200;-31
2023/08/30 04:31:57;;;;;;;4.73;4.33;;;;;;;;;;5102792;28;20227;-31
2023/08/30 04:34:24;;;;;;;4.50;3.90;;;;;;;;;;5105633;28;20291;-28
2023/08/30 04:36:53;;;;;;;4.63;4.30;;;;;;;;;;5100180;28;20211;-30
2023/08/30 04:39:20;;;;;;;5.00;4.60;;;;;;;;;;5099103;28;20201;-29
2023/08/30 04:41:47;;;;;;;2.73;2.63;;;;;;;;;;5102560;28;20686;-29
2023/08/30 04:44:14;;;;;;;3.27;3.07;;;;;;;;;;5108901;28;20203;-33
2023/08/30 04:46:41;;;;;;;3.67;3.37;;;;;;;;;;5099345;28;20211;-30
2023/08/30 04:49:08;;;;;;;3.87;3.57;;;;;;;;;;5095039;28;20197;-31
2023/08/30 04:51:35;;;;;;;5.33;4.77;;;;;;;;;;5096730;28;20235;-33
2023/08/30 04:54:04;;;;;;;3.40;3.20;;;;;;;;;;5100846;28;20208;-31
2023/08/30 04:56:31;;;;;;;3.57;3.27;;;;;;;;;;5103139;28;20200;-28
2023/08/30 04:58:58;;;;;;;5.80;5.30;;;;;;;;;;5113940;28;20207;-28
2023/08/30 05:01:25;;;;;;;4.27;3.90;;;;;;;;;;5100190;28;20235;-31
2023/08/30 05:03:52;;;;;;;4.93;4.53;;;;;;;;;;5102252;28;20208;-31
2023/08/30 05:06:19;;;;;;;5.17;4.67;;;;;;;;;;5109237;28;20550;-28
2023/08/30 05:08:47;;;;;;;3.80;3.50;;;;;;;;;;5100348;28;20208;-31
2023/08/30 05:11:15;;;;;;;4.20;3.87;;;;;;;;;;5103648;28;20220;-31
2023/08/30 05:13:42;;;;;;;4.37;3.97;;;;;;;;;;5093387;28;20230;-29
2023/08/30 05:16:10;;;;;;;5.93;4.60;;;;;;;;;;5091808;28;20204;-27
2023/08/30 05:18:37;;;;;;;5.77;5.30;;;;;;;;;;5109014;28;20208;-31
2023/08/30 05:21:04;;;;;;;5.80;5.30;;;;;;;;;;5092273;28;20248;-30
2023/08/30 05:23:31;;;;;;;6.50;5.47;;;;;;;;;;5105827;28;20267;-31
2023/08/30 05:25:58;;;;;;;5.83;5.33;;;;;;;;;;5113027;28;20256;-31
2023/08/30 05:28:27;;;;;;;9.07;5.60;;;;;;;;;;5093501;28;20205;-29
2023/08/30 05:30:54;;;;;;;13.50;5.93;;;;;;;;;;5096082;28;20201;-30
2023/08/30 05:33:21;;;;;;;3.77;3.47;;;;;;;;;;5112568;28;20207;-28
2023/08/30 05:35:48;;;;;;;6.20;5.70;;;;;;;;;;5099576;28;20203;-29
2023/08/30 05:38:15;;;;;;;5.03;4.63;;;;;;;;;;5098108;28;20214;-29
2023/08/30 05:40:44;;;;;;;5.43;4.93;;;;;;;;;;5113641;28;20230;-27
2023/08/30 05:43:11;;;;;;;4.73;4.30;;;;;;;;;;5096548;28;20301;-27
2023/08/30 05:45:40;;;;;;;4.80;4.30;;;;;;;;;;5101232;28;20206;-29
2023/08/30 05:48:07;;;;;;;7.03;6.30;;;;;;;;;;5097589;28;20235;-32
2023/08/30 05:50:34;;;;;;;5.77;5.30;;;;;;;;;;5093669;28;20196;-30
2023/08/30 05:53:02;;;;;;;8.03;5.57;;;;;;;;;;5098183;28;20231;-28
2023/08/30 05:55:29;;;;;;;7.63;6.30;;;;;;;;;;5109379;28;20231;-29
2023/08/30 05:57:57;;;;;;;5.30;3.67;;;;;;;;;;5109134;28;20200;-30
2023/08/30 06:00:25;;;;;;;6.17;5.60;;;;;;;;;;5113670;28;20234;-29
2023/08/30 06:02:54;;;;;;;7.70;5.97;;;;;;;;;;5108976;28;20228;-27
2023/08/30 06:05:21;;;;;;;4.10;3.70;;;;;;;;;;5095051;28;20301;-31
2023/08/30 06:07:48;;;;;;;6.17;5.67;;;;;;;;;;5095657;28;20208;-28
2023/08/30 06:10:15;;;;;;;4.90;4.50;;;;;;;;;;5111038;28;20290;-30
2023/08/30 06:12:42;;;;;;;5.63;5.13;;;;;;;;;;5114077;28;20219;-31
2023/08/30 06:15:09;;;;;;;5.93;5.43;;;;;;;;;;5114217;28;20196;-31
2023/08/30 06:17:37;;;;;;;4.63;4.30;;;;;;;;;;5111032;28;20203;-30
2023/08/30 06:20:05;;;;;;;7.73;5.47;;;;;;;;;;5105229;28;20223;-30
2023/08/30 06:22:33;;;;;;;6.30;5.70;;;;;;;;;;5099901;28;20223;-30
2023/08/30 06:25:00;;;;;;;4.50;4.20;;;;;;;;;;5092656;28;20271;-30
2023/08/30 06:27:27;;;;;;;5.30;4.90;;;;;;;;;;5093019;28;20200;-29
2023/08/30 06:29:54;;;;;;;5.50;5.00;;;;;;;;;;5108996;28;20207;-30
2023/08/30 06:32:21;;;;;;;6.83;5.13;;;;;;;;;;5105308;28;20228;-28
2023/08/30 06:34:48;;;;;;;4.63;4.20;;;;;;;;;;5097778;28;20235;-28
2023/08/30 06:37:17;;;;;;;5.40;4.90;;;;;;;;;;5099814;28;20206;-29
2023/08/30 06:39:44;;;;;;;3.87;3.40;;;;;;;;;;5094115;28;20227;-29
2023/08/30 06:42:11;;;;;;;3.53;3.23;;;;;;;;;;5100240;28;20297;-29
2023/08/30 06:44:40;;;;;;;5.00;4.60;;;;;;;;;;5112622;28;20216;-31
2023/08/30 06:47:07;;;;;;;5.40;4.90;;;;;;;;;;5105929;28;20243;-31
2023/08/30 06:49:34;;;;;;;5.93;5.33;;;;;;;;;;5091659;28;20200;-29
2023/08/30 06:52:03;;;;;;;5.50;4.90;;;;;;;;;;5091806;28;20227;-32
2023/08/30 06:54:32;;;;;;;5.50;5.10;;;;;;;;;;5103754;28;20204;-32
2023/08/30 06:56:59;;;;;;;5.37;4.93;;;;;;;;;;5099716;28;20204;-31
2023/08/30 06:59:27;;;;;;;5.87;5.30;;;;;;;;;;5091800;28;20205;-28
2023/08/30 07:01:54;;;;;;;6.20;5.60;;;;;;;;;;5093629;28;20228;-31
2023/08/30 07:04:21;;;;;;;7.57;5.57;;;;;;;;;;5099448;28;20211;-28
2023/08/30 07:06:48;;;;;;;5.50;4.43;;;;;;;;;;5100426;28;20216;-31
2023/08/30 07:09:16;;;;;;;6.13;5.63;;;;;;;;;;5095331;28;20204;-29
2023/08/30 07:11:45;;;;;;;6.20;5.60;;;;;;;;;;5104640;28;20219;-29
2023/08/30 07:14:14;;;;;;;8.00;5.67;;;;;;;;;;5111691;28;20199;-29
2023/08/30 07:16:43;;;;;;;5.53;5.07;;;;;;;;;;5108047;28;20208;-30
2023/08/30 07:19:10;;;;;;;4.73;4.33;;;;;;;;;;5103133;28;20201;-31
2023/08/30 07:21:38;;;;;;;5.73;3.80;;;;;;;;;;5112336;28;20234;-30
2023/08/30 07:24:06;;;;;;;4.90;4.17;;;;;;;;;;5096840;28;20258;-30
2023/08/30 07:26:33;;;;;;;6.47;4.73;;;;;;;;;;5086470;28;20200;-29
2023/08/30 07:29:05;;;;;;;5.77;5.10;;;;;;;;;;5097157;28;20215;-31
2023/08/30 07:31:32;;;;;;;5.73;5.07;;;;;;;;;;5097922;28;20279;-29
2023/08/30 07:33:59;;;;;;;6.57;5.97;;;;;;;;;;5092214;28;20204;-31
2023/08/30 07:36:26;;;;;;;5.50;4.43;;;;;;;;;;5097267;28;20275;-30
2023/08/30 07:38:54;;;;;;;4.97;4.57;;;;;;;;;;5096638;28;20209;-32
2023/08/30 07:41:21;;;;;;;5.17;4.60;;;;;;;;;;5103332;28;20237;-30
2023/08/30 07:43:48;;;;;;;10.30;6.07;;;;;;;;;;5112159;28;20196;-31
2023/08/30 07:46:16;;;;;;;4.23;3.90;;;;;;;;;;5096069;28;20212;-29
2023/08/30 07:48:43;;;;;;;7.00;6.30;;;;;;;;;;5099758;28;20204;-31
2023/08/30 07:51:11;;;;;;;5.03;4.50;;;;;;;;;;5091820;28;20401;-29
2023/08/30 07:53:38;;;;;;;6.13;5.00;;;;;;;;;;5101678;28;20211;-30
2023/08/30 07:56:05;;;;;;;4.47;4.07;;;;;;;;;;5107561;28;20206;-28
2023/08/30 07:58:32;;;;;;;4.57;4.10;;;;;;;;;;5092291;28;20228;-29
2023/08/30 08:00:59;;;;;;;5.43;4.97;;;;;;;;;;5111522;28;20214;-27
2023/08/30 08:03:28;;;;;;;5.83;5.37;;;;;;;;;;5095944;28;20204;-28
2023/08/30 08:05:55;;;;;;;4.83;4.43;;;;;;;;;;5097944;28;20211;-31
2023/08/30 08:08:22;;;;;;;5.30;4.90;;;;;;;;;;5097447;28;20234;-31
2023/08/30 08:10:49;;;;;;;4.70;4.30;;;;;;;;;;5102024;28;20207;-32
2023/08/30 08:13:16;;;;;;;5.00;4.60;;;;;;;;;;5109459;28;20215;-28
2023/08/30 08:15:44;;;;;;;5.00;4.50;;;;;;;;;;5106368;28;20200;-30
2023/08/30 08:18:11;;;;;;;5.40;4.47;;;;;;;;;;5093366;28;20635;-30
2023/08/30 08:20:40;;;;;;;5.10;4.70;;;;;;;;;;5103991;28;20224;-32
2023/08/30 08:23:07;;;;;;;4.47;3.40;;;;;;;;;;5102598;28;20224;-28
2023/08/30 08:25:34;;;;;;;5.47;3.97;;;;;;;;;;5103703;28;20214;-31
2023/08/30 08:28:03;;;;;;;5.53;5.03;;;;;;;;;;5111817;28;20204;-30
2023/08/30 08:30:30;;;;;;;17.10;5.90;;;;;;;;;;5109278;28;20204;-31
2023/08/30 08:32:57;;;;;;;5.40;4.90;;;;;;;;;;5094162;28;20235;-30
2023/08/30 08:35:24;;;;;;;5.67;5.07;;;;;;;;;;5100280;28;20196;-30
2023/08/30 08:37:53;;;;;;;5.70;5.10;;;;;;;;;;5089555;28;20223;-31
2023/08/30 08:40:20;;;;;;;6.40;4.97;;;;;;;;;;5103075;28;20337;-31
2023/08/30 08:42:50;;;;;;;6.13;5.53;;;;;;;;;;5091091;28;20248;-30
2023/08/30 08:45:17;;;;;;;5.73;5.23;;;;;;;;;;5089598;28;20292;-29
2023/08/30 08:47:46;;;;;;;5.37;4.87;;;;;;;;;;5089138;28;20201;-32
2023/08/30 08:50:13;;;;;;;6.63;5.47;;;;;;;;;;5097871;28;20200;-33
2023/08/30 08:52:41;;;;;;;5.40;5.00;;;;;;;;;;5093138;28;20220;-28
2023/08/30 08:55:10;;;;;;;5.07;4.67;;;;;;;;;;5097537;28;20208;-32
2023/08/30 08:57:39;;;;;;;4.27;3.87;;;;;;;;;;5090151;28;20204;-31
2023/08/30 09:00:07;;;;;;;6.30;5.70;;;;;;;;;;5095085;28;20200;-29
2023/08/30 09:02:35;;;;;;;5.30;4.80;;;;;;;;;;5091463;28;20236;-31
2023/08/30 09:05:03;;;;;;;5.40;4.90;;;;;;;;;;5107068;28;20206;-32
2023/08/30 09:07:32;;;;;;;4.87;3.93;;;;;;;;;;5108392;28;20199;-30
2023/08/30 09:09:59;;;;;;;4.93;4.33;;;;;;;;;;5098368;28;20211;-30
2023/08/30 09:12:28;;;;;;;5.27;4.77;;;;;;;;;;5101682;28;20265;-31
2023/08/30 09:14:55;;;;;;;3.77;3.40;;;;;;;;;;5109575;28;20212;-29
2023/08/30 09:17:22;;;;;;;4.70;4.40;;;;;;;;;;5099021;28;20212;-29
2023/08/30 09:19:50;;;;;;;4.50;4.20;;;;;;;;;;5096581;28;20295;-29
2023/08/30 09:22:17;;;;;;;4.97;4.57;;;;;;;;;;5105809;28;20232;-29
2023/08/30 09:24:44;;;;;;;4.43;3.27;;;;;;;;;;5097278;28;20207;-30
2023/08/30 09:27:11;;;;;;;4.43;3.73;;;;;;;;;;5107355;28;20196;-31
2023/08/30 09:29:43;;;;;;;4.03;3.70;;;;;;;;;;5109329;28;20242;-30
2023/08/30 09:32:10;;;;;;;3.70;3.40;;;;;;;;;;5099037;28;20231;-28
2023/08/30 09:34:37;;;;;;;3.20;3.00;;;;;;;;;;5091554;28;20207;-29
2023/08/30 09:37:05;;;;;;;3.53;3.23;;;;;;;;;;5091233;28;20214;-27
2023/08/30 09:39:33;;;;;;;3.80;3.40;;;;;;;;;;5101437;28;20203;-31
2023/08/30 09:42:00;;;;;;;3.27;3.03;;;;;;;;;;5095809;28;20240;-31
2023/08/30 09:44:31;;;;;;;4.30;3.90;;;;;;;;;;5098309;28;20223;-28
2023/08/30 09:47:00;;;;;;;4.13;3.20;;;;;;;;;;5105881;28;20195;-31
2023/08/30 09:49:27;;;;;;;4.17;3.87;;;;;;;;;;5099186;28;20213;-30
2023/08/30 09:51:55;;;;;;;3.50;3.03;;;;;;;;;;5094734;28;20223;-28
2023/08/30 09:54:23;;;;;;;3.70;3.30;;;;;;;;;;5100134;28;20227;-30
2023/08/30 09:56:52;;;;;;;3.93;3.63;;;;;;;;;;5104802;28;20208;-30
2023/08/30 09:59:19;;;;;;;3.57;3.23;;;;;;;;;;5094269;28;20292;-29
2023/08/30 10:01:56;;;;;;;4.20;3.50;;;;;;;;;;5103939;28;20223;-28
2023/08/30 10:04:24;;;;;;;3.50;3.20;;;;;;;;;;5093987;28;20287;-28
2023/08/30 10:06:53;;;;;;;3.53;3.23;;;;;;;;;;5103130;28;20206;-29
2023/08/30 10:09:20;;;;;;;3.27;3.07;;;;;;;;;;5101053;28;20492;-29
2023/08/30 10:11:48;;;;;;;4.27;2.60;;;;;;;;;;5100869;28;20218;-30
2023/08/30 10:14:15;;;;;;;3.00;2.80;;;;;;;;;;5110843;28;20309;-28
2023/08/30 10:16:44;;;;;;;2.80;2.60;;;;;;;;;;5103751;28;20231;-31
2023/08/30 10:19:15;;;;;;;3.33;3.00;;;;;;;;;;5095006;28;20295;-33
2023/08/30 10:21:44;;;;;;;2.80;2.60;;;;;;;;;;5089891;28;20234;-32
2023/08/30 10:24:13;;;;;;;2.90;2.70;;;;;;;;;;5101956;28;20214;-31
2023/08/30 10:26:41;;;;;;;3.00;2.70;;;;;;;;;;5094501;28;20203;-29
2023/08/30 10:29:09;;;;;;;2.73;2.53;;;;;;;;;;5100211;28;20200;-30
2023/08/30 10:31:36;;;;;;;3.23;2.70;;;;;;;;;;5100644;28;20220;-29
2023/08/30 10:34:03;;;;;;;3.00;2.70;;;;;;;;;;5099800;28;20209;-31
2023/08/30 10:36:30;;;;;;;3.27;3.00;;;;;;;;;;5102978;28;20192;-31
2023/08/30 10:38:59;;;;;;;2.70;2.40;;;;;;;;;;5090459;28;20298;-29
2023/08/30 10:41:27;;;;;;;2.70;2.50;;;;;;;;;;5089539;28;20229;-29
2023/08/30 10:43:54;;;;;;;2.73;2.53;;;;;;;;;;5099686;28;20232;-32
2023/08/30 10:46:31;;;;;;;2.77;2.57;;;;;;;;;;5095742;28;20200;-28
2023/08/30 10:49:09;;;;;;;3.90;3.03;;;;;;;;;;5091202;28;20208;-32
2023/08/30 10:51:38;;;;;;;4.80;3.33;;;;;;;;;;5089690;28;20501;-33
2023/08/30 10:54:13;;;;;;;3.57;2.40;;;;;;;;;;5099772;28;20197;-31
2023/08/30 10:56:50;;;;;;;3.60;2.70;;;;;;;;;;5098779;28;20206;-32
2023/08/30 10:59:18;;;;;;;2.70;2.50;;;;;;;;;;5107990;28;20206;-29
2023/08/30 11:01:45;;;;;;;2.40;2.20;;;;;;;;;;5103393;28;20227;-30
2023/08/30 11:04:14;;;;;;;2.97;2.70;;;;;;;;;;5104422;28;20259;-29
2023/08/30 11:06:53;;;;;;;2.83;2.50;;;;;;;;;;5098125;28;20208;-31
2023/08/30 11:09:22;;;;;;;3.20;2.47;;;;;;;;;;5101682;28;20192;-29
2023/08/30 11:11:50;;;;;;;2.40;2.30;;;;;;;;;;5096797;28;20318;-30
2023/08/30 11:14:17;;;;;;;2.27;2.17;;;;;;;;;;5101557;28;20207;-31
2023/08/30 11:16:45;;;;;;;3.13;2.93;;;;;;;;;;5106308;28;20207;-30
2023/08/30 11:19:13;;;;;;;3.07;2.80;;;;;;;;;;5103104;28;20204;-31
2023/08/30 11:21:41;;;;;;;3.73;2.73;;;;;;;;;;5103431;28;20230;-32
2023/08/30 11:24:08;;;;;;;2.57;2.20;;;;;;;;;;5099264;28;20207;-32
2023/08/30 11:26:37;;;;;;;2.80;2.60;;;;;;;;;;5096260;28;20302;-32
2023/08/30 11:29:07;;;;;;;3.37;2.13;;;;;;;;;;5097884;28;20192;-31
2023/08/30 11:31:34;;;;;;;2.30;2.03;;;;;;;;;;5099610;28;20234;-32
2023/08/30 11:34:02;;;;;;;2.47;2.20;;;;;;;;;;5103450;28;20208;-29
2023/08/30 11:36:30;;;;;;;4.90;2.80;;;;;;;;;;5105035;28;20205;-32
2023/08/30 11:38:58;;;;;;;2.47;2.27;;;;;;;;;;5098582;28;20240;-31
2023/08/30 11:41:26;;;;;;;2.73;2.13;;;;;;;;;;5094693;28;20332;-32
2023/08/30 11:43:54;;;;;;;2.53;2.33;;;;;;;;;;5100156;28;20203;-29
2023/08/30 11:46:22;;;;;;;1.80;1.70;;;;;;;;;;5100158;28;20215;-32
2023/08/30 11:48:50;;;;;;;1.93;1.83;;;;;;;;;;5097698;28;20196;-30
2023/08/30 11:51:18;;;;;;;2.17;2.07;;;;;;;;;;5105987;28;20216;-27
2023/08/30 11:53:45;;;;;;;2.30;1.80;;;;;;;;;;5098826;28;20211;-32
2023/08/30 11:56:13;;;;;;;2.23;1.93;;;;;;;;;;5104683;28;20201;-31
2023/08/30 11:58:40;;;;;;;1.63;1.50;;;;;;;;;;5097969;28;20195;-29
2023/08/30 12:01:09;;;;;;;3.40;1.60;;;;;;;;;;5101073;28;20328;-28
2023/08/30 12:03:36;;;;;;;1.80;1.70;;;;;;;;;;5099998;28;20216;-32
2023/08/30 12:06:03;;;;;;;1.60;1.47;;;;;;;;;;5097845;28;20205;-28
2023/08/30 12:08:31;;;;;;;1.63;1.53;;;;;;;;;;5098618;28;20575;-29
2023/08/30 12:10:59;;;;;;;3.27;1.50;;;;;;;;;;5103359;28;20203;-30
2023/08/30 12:13:26;;;;;;;1.23;1.23;;;;;;;;;;5098965;28;20199;-29
2023/08/30 12:15:53;;;;;;;1.60;1.50;;;;;;;;;;5101347;28;20206;-31
2023/08/30 12:18:24;;;;;;;1.50;1.40;;;;;;;;;;5104150;28;20203;-30
2023/08/30 12:20:55;;;;;;;1.30;1.20;;;;;;;;;;5099774;28;20215;-31
2023/08/30 12:23:22;;;;;;;1.30;1.20;;;;;;;;;;5093790;28;20234;-31
2023/08/30 12:25:59;;;;;;;3.80;1.20;;;;;;;;;;5097538;28;20215;-29
2023/08/30 12:28:26;;;;;;;1.83;1.40;;;;;;;;;;5090442;28;20205;-30
2023/08/30 12:30:53;;;;;;;1.10;1.10;;;;;;;;;;5096225;28;20646;-32
2023/08/30 12:33:20;;;;;;;1.10;1.10;;;;;;;;;;5102905;28;20196;-33
2023/08/30 12:35:49;;;;;;;1.43;1.40;;;;;;;;;;5098017;28;20205;-30
2023/08/30 12:38:18;;;;;;;1.63;1.53;;;;;;;;;;5097229;28;20212;-32
2023/08/30 12:40:45;;;;;;;4.00;1.63;;;;;;;;;;5094820;28;20206;-31
2023/08/30 12:43:13;;;;;;;3.80;1.70;;;;;;;;;;5103600;28;20308;-30
2023/08/30 12:45:40;;;;;;;1.50;1.40;;;;;;;;;;5101521;28;20207;-33
2023/08/30 12:48:08;;;;;;;1.40;1.40;;;;;;;;;;5102684;28;20202;-33
2023/08/30 12:50:36;;;;;;;1.50;1.40;;;;;;;;;;5102613;28;20232;-31
2023/08/30 12:53:05;;;;;;;2.40;1.80;;;;;;;;;;5105108;28;20226;-29
2023/08/30 12:55:32;;;;;;;1.80;1.70;;;;;;;;;;5095266;28;20216;-33
2023/08/30 12:57:59;;;;;;;2.10;1.20;;;;;;;;;;5105195;28;20208;-30
2023/08/30 13:00:29;;;;;;;1.50;1.40;;;;;;;;;;5105475;28;20207;-31
2023/08/30 13:02:57;;;;;;;1.40;1.30;;;;;;;;;;5106208;28;20223;-31
2023/08/30 13:05:24;;;;;;;1.30;1.20;;;;;;;;;;5105307;28;20200;-31
2023/08/30 13:07:51;;;;;;;1.10;1.10;;;;;;;;;;5094118;28;20214;-29
2023/08/30 13:10:19;;;;;;;1.70;1.60;;;;;;;;;;5102283;28;20196;-30
2023/08/30 13:12:47;;;;;;;1.60;1.50;;;;;;;;;;5101789;28;20216;-32
2023/08/30 13:15:14;;;;;;;1.50;1.50;;;;;;;;;;5098138;28;20205;-33
2023/08/30 13:17:41;;;;;;;2.20;2.10;;;;;;;;;;5102219;28;20208;-32
2023/08/30 13:20:08;;;;;;;1.60;1.50;;;;;;;;;;5097842;28;20201;-32
2023/08/30 13:22:36;;;;;;;1.80;1.70;;;;;;;;;;5097800;28;20219;-31
2023/08/30 13:25:04;;;;;;;2.50;2.13;;;;;;;;;;5100907;28;20261;-29
2023/08/30 13:27:32;;;;;;;2.00;1.90;;;;;;;;;;5098995;28;20196;-33
2023/08/30 13:29:59;;;;;;;2.00;1.90;;;;;;;;;;5102906;28;20199;-30
2023/08/30 13:32:27;;;;;;;1.90;1.80;;;;;;;;;;5103995;28;20226;-29
2023/08/30 13:34:54;;;;;;;2.03;1.70;;;;;;;;;;5103544;28;20220;-30
2023/08/30 13:37:23;;;;;;;2.13;2.00;;;;;;;;;;5099867;28;20204;-29
2023/08/30 13:39:50;;;;;;;2.20;2.10;;;;;;;;;;5100660;28;20196;-33
2023/08/30 13:42:17;;;;;;;2.13;1.93;;;;;;;;;;5099507;28;20224;-28
2023/08/30 13:44:46;;;;;;;2.97;1.80;;;;;;;;;;5095029;28;20206;-31
2023/08/30 13:47:13;;;;;;;2.10;2.00;;;;;;;;;;5097968;28;20202;-29
2023/08/30 13:49:40;;;;;;;1.90;1.80;;;;;;;;;;5091818;28;20210;-30
2023/08/30 13:52:07;;;;;;;1.90;1.50;;;;;;;;;;5096340;28;20224;-28
2023/08/30 13:54:34;;;;;;;2.33;2.03;;;;;;;;;;5091119;28;20200;-32
2023/08/30 13:57:03;;;;;;;3.67;2.03;;;;;;;;;;5091982;28;20193;-33
2023/08/30 13:59:30;;;;;;;1.90;1.80;;;;;;;;;;5095387;28;20196;-30
2023/08/30 14:01:59;;;;;;;2.70;1.97;;;;;;;;;;5097729;28;20243;-34
2023/08/30 14:04:26;;;;;;;1.73;1.63;;;;;;;;;;5092633;28;20286;-32
2023/08/30 14:06:53;;;;;;;2.00;1.63;;;;;;;;;;5099245;28;20214;-30
2023/08/30 14:09:20;;;;;;;1.80;1.70;;;;;;;;;;5100856;28;20223;-33
2023/08/30 14:11:47;;;;;;;1.87;1.77;;;;;;;;;;5099360;28;20227;-31
2023/08/30 14:14:14;;;;;;;1.63;1.57;;;;;;;;;;5098819;28;20196;-29
2023/08/30 14:16:42;;;;;;;1.90;1.80;;;;;;;;;;5101950;28;20192;-31
2023/08/30 14:19:10;;;;;;;2.00;1.90;;;;;;;;;;5099693;28;20207;-28
2023/08/30 14:21:37;;;;;;;1.80;1.70;;;;;;;;;;5094384;28;20220;-30
2023/08/30 14:24:05;;;;;;;2.03;1.93;;;;;;;;;;5100556;28;20231;-32
2023/08/30 14:26:32;;;;;;;1.77;1.60;;;;;;;;;;5091413;28;20193;-31
2023/08/30 14:28:59;;;;;;;1.70;1.60;;;;;;;;;;5098147;28;20192;-28
2023/08/30 14:31:26;;;;;;;1.70;1.60;;;;;;;;;;5094136;28;20216;-31
2023/08/30 14:33:55;;;;;;;1.30;1.30;;;;;;;;;;5101854;28;20204;-30
2023/08/30 14:36:24;;;;;;;1.70;1.60;;;;;;;;;;5094765;28;20201;-31
2023/08/30 14:38:51;;;;;;;2.00;1.83;;;;;;;;;;5102539;28;20212;-31
2023/08/30 14:41:18;;;;;;;1.73;1.63;;;;;;;;;;5096004;28;20403;-29
2023/08/30 14:43:45;;;;;;;2.70;1.90;;;;;;;;;;5106276;28;20220;-30
2023/08/30 14:46:15;;;;;;;1.70;1.60;;;;;;;;;;5105059;28;20204;-30